Time;durP1;ratioP1;P1;durP2;ratioP2;P2;SDS_P1;SDS_P2;PMS_P1;PMS_P2;Temp;Humidity;BMP_temperature;BMP_pressure;BME280_temperature;BME280_humidity;BME280_pressure;Samples;Min_cycle;Max_cycle;Signal;HPM_P1;HPM_P2
2023/10/24 00:02:22;;;;;;;17.05;8.52;;;10.00;99.90;;;;;;5095613;28;20471;-84
2023/10/24 00:04:47;;;;;;;14.50;9.15;;;10.00;99.90;;;;;;5108066;28;20016;-84
2023/10/24 00:11:05;;;;;;;17.65;7.88;;;10.00;99.90;;;;;;5092787;28;20523;-83
2023/10/24 00:13:31;;;;;;;19.17;7.78;;;10.00;99.90;;;;;;5087460;28;20089;-82
2023/10/24 00:15:57;;;;;;;14.68;7.55;;;10.10;99.90;;;;;;5087006;28;20051;-83
2023/10/24 00:18:24;;;;;;;14.70;8.20;;;10.20;99.90;;;;;;5106289;28;20431;-83
2023/10/24 00:20:50;;;;;;;12.27;7.20;;;10.20;99.90;;;;;;5064438;28;20027;-83
2023/10/24 00:23:16;;;;;;;12.35;7.63;;;10.20;99.90;;;;;;5082320;28;20032;-83
2023/10/24 00:25:41;;;;;;;13.52;7.78;;;10.30;99.90;;;;;;5088901;28;20467;-82
2023/10/24 00:28:07;;;;;;;19.60;8.07;;;10.30;99.90;;;;;;5123292;27;20027;-83
2023/10/24 00:30:55;;;;;;;16.70;8.57;;;10.20;99.90;;;;;;5069591;28;20024;-83
2023/10/24 00:33:21;;;;;;;11.82;7.68;;;10.20;99.90;;;;;;5113448;28;20016;-83
2023/10/24 00:35:46;;;;;;;12.85;8.05;;;10.20;99.90;;;;;;5084686;28;20496;-83
2023/10/24 00:38:12;;;;;;;13.90;8.30;;;10.20;99.90;;;;;;5111985;28;20507;-83
2023/10/24 00:40:38;;;;;;;12.98;9.30;;;10.10;99.90;;;;;;5070133;28;20031;-83
2023/10/24 00:43:04;;;;;;;15.13;8.40;;;10.10;99.90;;;;;;5087795;28;20382;-83
2023/10/24 00:45:52;;;;;;;15.38;9.88;;;10.00;99.90;;;;;;5068537;28;20369;-83
2023/10/24 00:48:18;;;;;;;17.95;9.20;;;10.00;99.90;;;;;;5104208;28;20034;-83
2023/10/24 00:50:44;;;;;;;18.00;10.13;;;9.90;99.90;;;;;;5084426;28;20077;-83
2023/10/24 00:53:10;;;;;;;16.75;11.05;;;9.90;99.90;;;;;;5086206;28;20024;-83
2023/10/24 00:55:38;;;;;;;14.77;9.82;;;9.90;99.90;;;;;;5082522;28;20020;-84
2023/10/24 00:58:07;;;;;;;13.15;9.60;;;9.80;99.90;;;;;;5107302;28;20074;-83
2023/10/24 01:00:34;;;;;;;17.50;11.32;;;9.80;99.90;;;;;;5100878;28;20056;-83
2023/10/24 01:03:02;;;;;;;15.05;11.30;;;9.80;99.90;;;;;;5083538;28;20118;-83
2023/10/24 01:05:28;;;;;;;21.73;11.80;;;9.80;99.90;;;;;;5085373;28;20027;-83
2023/10/24 01:07:54;;;;;;;20.52;11.02;;;9.70;99.90;;;;;;5085574;28;20020;-83
2023/10/24 01:10:20;;;;;;;20.08;10.77;;;9.80;99.90;;;;;;5111810;27;20020;-83
2023/10/24 01:12:45;;;;;;;17.63;10.90;;;9.70;99.90;;;;;;5071388;28;20024;-83
2023/10/24 01:15:11;;;;;;;18.88;11.75;;;9.80;99.90;;;;;;5079753;28;20458;-83
2023/10/24 01:17:48;;;;;;;17.75;11.27;;;9.90;99.90;;;;;;5066257;28;20081;-83
2023/10/24 01:20:14;;;;;;;17.20;11.45;;;9.90;99.90;;;;;;5082392;28;20031;-83
2023/10/24 01:22:39;;;;;;;21.00;11.02;;;10.00;99.90;;;;;;5083606;28;20028;-83
2023/10/24 01:25:12;;;;;;;18.30;10.60;;;10.00;99.90;;;;;;5116560;27;20079;-83
2023/10/24 01:27:40;;;;;;;16.60;11.45;;;10.00;99.90;;;;;;5067744;28;20111;-83
2023/10/24 01:30:06;;;;;;;25.60;11.65;;;10.00;99.90;;;;;;5082627;28;20024;-84
2023/10/24 01:32:32;;;;;;;17.27;11.82;;;10.10;99.90;;;;;;5096770;28;20051;-83
2023/10/24 01:34:57;;;;;;;25.00;11.52;;;10.10;99.90;;;;;;5084998;28;20872;-83
2023/10/24 01:37:23;;;;;;;18.60;12.55;;;10.10;99.90;;;;;;5081698;28;20021;-83
2023/10/24 01:39:49;;;;;;;21.20;13.63;;;10.10;99.90;;;;;;5121090;27;20810;-83
2023/10/24 01:42:15;;;;;;;21.27;11.52;;;10.10;99.90;;;;;;5065593;28;20490;-84
2023/10/24 01:44:40;;;;;;;20.88;12.50;;;10.10;99.90;;;;;;5079525;28;20497;-84
2023/10/24 01:47:06;;;;;;;28.40;12.27;;;10.10;99.90;;;;;;5064014;28;20051;-84
2023/10/24 01:49:32;;;;;;;20.27;12.32;;;10.10;99.90;;;;;;5080248;28;20028;-83
2023/10/24 01:51:57;;;;;;;19.35;11.25;;;10.30;99.90;;;;;;5062264;28;20024;-83
2023/10/24 01:54:23;;;;;;;22.10;12.57;;;10.30;99.90;;;;;;5081695;28;20089;-83
2023/10/24 01:56:50;;;;;;;17.58;10.85;;;10.30;99.90;;;;;;5065091;28;20024;-84
2023/10/24 01:59:15;;;;;;;26.55;11.73;;;10.40;99.90;;;;;;5083679;28;20035;-83
2023/10/24 02:01:41;;;;;;;22.08;10.85;;;10.40;99.90;;;;;;5083897;28;20032;-84
2023/10/24 02:04:07;;;;;;;20.73;11.38;;;10.40;99.90;;;;;;5082075;28;20039;-84
2023/10/24 02:06:32;;;;;;;19.70;11.27;;;10.30;99.90;;;;;;5109954;27;20036;-83
2023/10/24 02:08:58;;;;;;;21.60;10.32;;;10.50;99.90;;;;;;5094732;28;20040;-84
2023/10/24 02:11:24;;;;;;;16.08;10.60;;;10.50;99.90;;;;;;5064855;28;20098;-84
2023/10/24 02:13:50;;;;;;;20.23;9.82;;;10.40;99.90;;;;;;5072831;28;20105;-84
2023/10/24 02:16:15;;;;;;;19.20;11.32;;;10.30;99.90;;;;;;5109893;27;20028;-84
2023/10/24 02:18:41;;;;;;;16.08;10.13;;;10.30;99.90;;;;;;5061367;28;20113;-83
2023/10/24 02:21:07;;;;;;;18.92;10.55;;;10.30;99.90;;;;;;5067751;28;20031;-84
2023/10/24 02:23:34;;;;;;;23.13;13.23;;;10.20;99.90;;;;;;5062470;28;20115;-84
2023/10/24 02:25:59;;;;;;;18.77;11.45;;;10.20;99.90;;;;;;5070368;28;20779;-84
2023/10/24 02:28:25;;;;;;;22.20;12.27;;;10.20;99.90;;;;;;5064377;28;20065;-84
2023/10/24 02:30:50;;;;;;;22.80;12.60;;;10.10;99.90;;;;;;5081061;28;20023;-84
2023/10/24 02:33:16;;;;;;;30.38;15.60;;;10.10;99.90;;;;;;5064503;28;20051;-83
2023/10/24 02:35:42;;;;;;;32.67;18.77;;;10.10;99.90;;;;;;5065912;28;20035;-83
2023/10/24 02:38:07;;;;;;;55.75;19.88;;;10.20;99.90;;;;;;5063005;28;20028;-84
2023/10/24 02:40:34;;;;;;;41.08;20.98;;;10.20;99.90;;;;;;5062229;28;20043;-84
2023/10/24 02:43:21;;;;;;;40.17;20.27;;;10.20;99.90;;;;;;5083151;28;20021;-83
2023/10/24 02:45:47;;;;;;;29.25;20.08;;;10.10;99.90;;;;;;5057721;28;20032;-84
2023/10/24 02:48:12;;;;;;;41.38;23.80;;;10.10;99.90;;;;;;5085167;28;20024;-84
2023/10/24 02:50:38;;;;;;;36.22;24.02;;;10.00;99.90;;;;;;5072786;28;20032;-83
2023/10/24 02:53:06;;;;;;;36.33;22.45;;;10.00;99.90;;;;;;5079074;28;20027;-83
2023/10/24 02:55:33;;;;;;;45.97;25.92;;;10.00;99.90;;;;;;5082260;28;20032;-84
2023/10/24 02:57:59;;;;;;;40.45;27.38;;;9.90;99.90;;;;;;5075118;28;20036;-83
2023/10/24 03:00:25;;;;;;;39.60;26.23;;;9.80;99.90;;;;;;5080001;28;20063;-83
2023/10/24 03:02:50;;;;;;;48.67;26.55;;;9.80;99.90;;;;;;5081652;28;20027;-83
2023/10/24 03:05:16;;;;;;;49.97;27.13;;;9.80;99.90;;;;;;5063704;28;20402;-83
2023/10/24 03:07:42;;;;;;;44.95;28.33;;;9.70;99.90;;;;;;5082604;28;20031;-83
2023/10/24 03:10:08;;;;;;;53.33;30.42;;;9.80;99.90;;;;;;5065809;28;20039;-83
2023/10/24 03:12:33;;;;;;;55.78;31.15;;;9.70;99.90;;;;;;5075592;28;20028;-84
2023/10/24 03:14:59;;;;;;;54.13;32.00;;;9.70;99.90;;;;;;5067421;28;20032;-83
2023/10/24 03:17:26;;;;;;;55.00;32.95;;;9.70;99.90;;;;;;5060414;28;20035;-83
2023/10/24 03:19:52;;;;;;;50.70;29.42;;;9.60;99.90;;;;;;5079728;28;20041;-83
2023/10/24 03:22:19;;;;;;;52.25;31.35;;;9.60;99.90;;;;;;5078794;28;20420;-83
2023/10/24 03:24:44;;;;;;;52.17;32.47;;;9.70;99.90;;;;;;5064600;28;20032;-83
2023/10/24 03:27:13;;;;;;;52.78;32.47;;;9.70;99.90;;;;;;5079755;28;20100;-83
2023/10/24 03:29:42;;;;;;;59.38;32.72;;;9.80;99.90;;;;;;5066794;28;20047;-83
2023/10/24 03:32:07;;;;;;;55.60;29.17;;;9.80;99.90;;;;;;5085321;28;20020;-83
2023/10/24 03:34:36;;;;;;;61.17;33.17;;;9.90;99.90;;;;;;5082379;28;20038;-83
2023/10/24 03:37:02;;;;;;;67.85;34.75;;;10.00;99.90;;;;;;5083402;28;20046;-84
2023/10/24 03:39:28;;;;;;;58.92;34.80;;;10.00;99.90;;;;;;5075082;28;20024;-84
2023/10/24 03:41:54;;;;;;;66.47;34.70;;;10.00;99.90;;;;;;5095279;28;20028;-83
2023/10/24 03:44:22;;;;;;;65.05;35.20;;;10.00;99.90;;;;;;5078194;28;20479;-83
2023/10/24 03:46:48;;;;;;;63.75;35.03;;;10.10;99.90;;;;;;5079654;28;20474;-83
2023/10/24 03:49:14;;;;;;;64.88;37.88;;;10.10;99.90;;;;;;5077964;28;20036;-83
2023/10/24 03:51:39;;;;;;;78.90;39.25;;;10.10;99.90;;;;;;5113044;28;20016;-84
2023/10/24 03:54:05;;;;;;;73.03;38.80;;;10.00;99.90;;;;;;5078639;28;20044;-83
2023/10/24 03:56:32;;;;;;;62.85;37.35;;;10.00;99.90;;;;;;5084518;28;20020;-84
2023/10/24 03:58:58;;;;;;;72.13;38.08;;;10.00;99.90;;;;;;5080031;28;20027;-83
2023/10/24 04:01:23;;;;;;;66.80;38.22;;;9.90;99.90;;;;;;5078172;28;20126;-83
2023/10/24 04:03:49;;;;;;;67.05;37.65;;;9.90;99.90;;;;;;5081263;28;20028;-84
2023/10/24 04:06:15;;;;;;;70.93;39.40;;;9.80;99.90;;;;;;5099041;28;20027;-84
2023/10/24 04:12:30;;;;;;;76.78;39.38;;;9.80;99.90;;;;;;5098368;28;20137;-84
2023/10/24 04:15:03;;;;;;;68.30;37.35;;;9.80;99.90;;;;;;5078749;28;20085;-84
2023/10/24 04:17:29;;;;;;;73.25;37.60;;;9.90;99.90;;;;;;5067214;28;20104;-84
2023/10/24 04:19:55;;;;;;;72.57;39.90;;;10.00;99.90;;;;;;5062081;28;20063;-84
2023/10/24 04:22:20;;;;;;;72.63;37.97;;;9.90;99.90;;;;;;5075435;28;20047;-83
2023/10/24 04:24:49;;;;;;;71.97;37.60;;;9.90;99.90;;;;;;5091616;28;20133;-84
2023/10/24 04:27:15;;;;;;;63.33;34.92;;;10.00;99.90;;;;;;5097577;28;20294;-83
2023/10/24 04:29:42;;;;;;;68.88;34.72;;;10.00;99.90;;;;;;5085293;28;20114;-84
2023/10/24 04:32:32;;;;;;;80.28;38.35;;;10.00;99.90;;;;;;5086215;28;20076;-84
2023/10/24 04:34:58;;;;;;;71.35;36.65;;;10.00;99.90;;;;;;5083727;28;20027;-84
2023/10/24 04:37:39;;;;;;;64.43;34.47;;;10.00;99.90;;;;;;5101390;28;20482;-84
2023/10/24 04:40:07;;;;;;;73.00;35.90;;;10.00;99.90;;;;;;5104911;28;20035;-83
2023/10/24 04:42:33;;;;;;;62.40;33.65;;;10.00;99.90;;;;;;5085764;28;20040;-84
2023/10/24 04:44:58;;;;;;;67.05;34.55;;;10.00;99.90;;;;;;5085421;28;20038;-83
2023/10/24 04:47:25;;;;;;;63.38;33.55;;;10.00;99.90;;;;;;5062866;28;20063;-83
2023/10/24 04:49:50;;;;;;;56.67;32.15;;;10.10;99.90;;;;;;5085779;28;20813;-83
2023/10/24 04:52:16;;;;;;;57.28;31.42;;;10.10;99.90;;;;;;5094821;28;20058;-84
2023/10/24 04:54:42;;;;;;;70.43;34.42;;;10.10;99.90;;;;;;5082404;28;20024;-83
2023/10/24 04:57:08;;;;;;;68.43;36.63;;;10.10;99.90;;;;;;5080087;28;20032;-83
2023/10/24 04:59:34;;;;;;;66.50;34.45;;;10.10;99.90;;;;;;5084539;28;20035;-83
2023/10/24 05:01:59;;;;;;;72.43;34.70;;;10.20;99.90;;;;;;5081191;28;20028;-83
2023/10/24 05:04:25;;;;;;;71.55;36.80;;;10.10;99.90;;;;;;5087447;28;20053;-83
2023/10/24 05:06:51;;;;;;;74.88;38.22;;;10.10;99.90;;;;;;5079826;28;20024;-84
2023/10/24 05:09:16;;;;;;;79.28;41.15;;;10.10;99.90;;;;;;5097834;28;20367;-84
2023/10/24 05:11:51;;;;;;;77.78;36.75;;;10.10;99.90;;;;;;5086706;28;20583;-83
2023/10/24 05:14:17;;;;;;;77.75;36.78;;;10.10;99.90;;;;;;5066599;28;20049;-84
2023/10/24 05:16:42;;;;;;;69.65;34.55;;;10.10;99.90;;;;;;5101955;28;20114;-84
2023/10/24 05:19:08;;;;;;;62.50;32.20;;;10.10;99.90;;;;;;5084555;28;20063;-83
2023/10/24 05:21:34;;;;;;;72.53;34.70;;;10.20;99.90;;;;;;5061203;28;20028;-83
2023/10/24 05:23:59;;;;;;;66.35;33.55;;;10.10;99.90;;;;;;5085420;28;20038;-83
2023/10/24 05:26:25;;;;;;;68.10;32.65;;;10.10;99.90;;;;;;5063474;28;20131;-84
2023/10/24 05:28:51;;;;;;;71.22;33.80;;;10.00;99.90;;;;;;5082117;28;20111;-84
2023/10/24 05:31:17;;;;;;;61.22;32.17;;;10.00;99.90;;;;;;5080041;28;20487;-83
2023/10/24 05:33:49;;;;;;;73.07;32.83;;;10.10;99.90;;;;;;5084765;28;20080;-83
2023/10/24 05:36:17;;;;;;;77.85;38.72;;;10.10;99.90;;;;;;5081515;28;20047;-83
2023/10/24 05:38:58;;;;;;;80.13;39.15;;;10.10;99.90;;;;;;5031313;28;20048;-83
2023/10/24 05:41:23;;;;;;;77.95;37.97;;;10.10;99.90;;;;;;5082587;28;20502;-83
2023/10/24 05:43:50;;;;;;;98.35;46.65;;;10.10;99.90;;;;;;5079797;28;20374;-83
2023/10/24 05:46:16;;;;;;;92.90;41.50;;;10.10;99.90;;;;;;5084643;28;20036;-83
2023/10/24 05:48:41;;;;;;;104.28;43.35;;;10.10;99.90;;;;;;5080980;28;20039;-83
2023/10/24 05:51:20;;;;;;;106.47;44.40;;;10.10;99.90;;;;;;5090141;28;20032;-83
2023/10/24 05:53:46;;;;;;;81.60;40.50;;;10.10;99.90;;;;;;5093593;28;20027;-83
2023/10/24 05:56:11;;;;;;;89.22;39.83;;;10.00;99.90;;;;;;5087576;28;20363;-83
2023/10/24 05:58:37;;;;;;;90.65;41.13;;;10.00;99.90;;;;;;5068227;28;20475;-83
2023/10/24 06:01:03;;;;;;;100.85;42.03;;;10.00;99.90;;;;;;5063793;28;20032;-83
2023/10/24 06:03:29;;;;;;;92.93;40.70;;;10.10;99.90;;;;;;5081825;28;20036;-83
2023/10/24 06:05:54;;;;;;;96.75;42.40;;;10.00;99.90;;;;;;5062749;28;20036;-83
2023/10/24 06:08:20;;;;;;;83.78;40.40;;;10.10;99.90;;;;;;5060720;28;20027;-83
2023/10/24 06:11:00;;;;;;;99.40;39.85;;;10.10;99.90;;;;;;5066409;28;20028;-83
2023/10/24 06:13:26;;;;;;;85.57;39.47;;;10.10;99.90;;;;;;5075218;28;20032;-83
2023/10/24 06:15:52;;;;;;;91.07;36.85;;;10.10;99.90;;;;;;5073813;28;20031;-84
2023/10/24 06:18:18;;;;;;;73.88;35.70;;;10.10;99.90;;;;;;5093656;28;20059;-83
2023/10/24 06:20:44;;;;;;;80.18;35.70;;;10.10;99.90;;;;;;5074739;28;20031;-83
2023/10/24 06:23:11;;;;;;;84.00;36.35;;;10.20;99.90;;;;;;5059533;28;20423;-83
2023/10/24 06:25:41;;;;;;;86.00;37.05;;;10.20;99.90;;;;;;5109470;27;20020;-83
2023/10/24 06:28:08;;;;;;;75.80;31.83;;;10.20;99.90;;;;;;5068017;28;20653;-83
2023/10/24 06:30:35;;;;;;;81.63;34.50;;;10.20;99.90;;;;;;5086778;28;20030;-80
2023/10/24 06:33:02;;;;;;;68.88;32.33;;;10.30;99.90;;;;;;5091240;28;20040;-81
2023/10/24 06:35:28;;;;;;;80.65;35.55;;;10.30;99.90;;;;;;5080180;28;20074;-84
2023/10/24 06:37:54;;;;;;;79.53;36.10;;;10.30;99.90;;;;;;5096405;28;20435;-82
2023/10/24 06:40:19;;;;;;;71.15;32.25;;;10.30;99.90;;;;;;5060906;28;20111;-84
2023/10/24 06:42:45;;;;;;;70.38;33.45;;;10.30;99.90;;;;;;5093723;28;20662;-83
2023/10/24 06:45:12;;;;;;;75.03;31.85;;;10.40;99.90;;;;;;5101167;27;20082;-83
2023/10/24 06:47:38;;;;;;;73.28;31.73;;;10.30;99.90;;;;;;5077028;28;20524;-83
2023/10/24 06:50:05;;;;;;;65.63;31.13;;;10.30;99.90;;;;;;5060031;28;20028;-83
2023/10/24 06:52:31;;;;;;;61.95;30.38;;;10.40;99.90;;;;;;5059127;28;20501;-83
2023/10/24 06:54:57;;;;;;;64.20;30.73;;;10.40;99.90;;;;;;5073272;28;20024;-83
2023/10/24 06:57:23;;;;;;;65.15;32.42;;;10.50;99.90;;;;;;5081060;28;20036;-83
2023/10/24 06:59:49;;;;;;;72.20;34.17;;;10.50;99.90;;;;;;5079909;28;20463;-84
2023/10/24 07:02:15;;;;;;;73.82;35.78;;;10.50;99.90;;;;;;5111050;27;20056;-83
2023/10/24 07:04:40;;;;;;;136.48;34.88;;;10.50;99.90;;;;;;5103685;28;20024;-83
2023/10/24 07:07:06;;;;;;;484.17;50.38;;;10.40;99.90;;;;;;5094705;28;20506;-83
2023/10/24 07:09:32;;;;;;;482.92;53.53;;;10.40;99.90;;;;;;5077565;28;20088;-81
2023/10/24 07:11:58;;;;;;;304.35;46.05;;;10.30;99.90;;;;;;5079994;28;20872;-83
2023/10/24 07:14:24;;;;;;;385.17;48.40;;;10.40;99.90;;;;;;5084484;28;20042;-81
2023/10/24 07:16:51;;;;;;;227.52;39.95;;;10.40;99.90;;;;;;5059363;28;20077;-84
2023/10/24 07:19:17;;;;;;;412.58;43.83;;;10.40;99.90;;;;;;5075383;28;20437;-84
2023/10/24 07:21:43;;;;;;;553.22;52.08;;;10.40;99.90;;;;;;5099648;28;20137;-83
2023/10/24 07:24:09;;;;;;;340.02;39.13;;;10.40;99.90;;;;;;5078516;28;20043;-84
2023/10/24 07:26:35;;;;;;;106.05;28.75;;;10.30;99.90;;;;;;5089979;28;20036;-83
2023/10/24 07:29:01;;;;;;;217.35;32.70;;;10.30;99.90;;;;;;5072560;28;20034;-83
2023/10/24 07:31:27;;;;;;;108.00;29.33;;;10.40;99.90;;;;;;5090305;28;20020;-80
2023/10/24 07:34:00;;;;;;;108.22;28.05;;;10.40;99.90;;;;;;5050983;28;20066;-81
2023/10/24 07:36:30;;;;;;;238.82;33.88;;;10.40;99.90;;;;;;5090861;28;20456;-81
2023/10/24 07:39:00;;;;;;;417.88;42.92;;;10.50;99.90;;;;;;5096524;28;20024;-81
2023/10/24 07:41:26;;;;;;;255.45;34.38;;;10.50;99.90;;;;;;5084743;28;20505;-81
2023/10/24 07:43:52;;;;;;;223.95;33.70;;;10.50;99.90;;;;;;5077029;28;20032;-81
2023/10/24 07:46:18;;;;;;;223.40;35.70;;;10.50;99.90;;;;;;5077624;28;20030;-82
2023/10/24 07:48:44;;;;;;;198.07;33.10;;;10.50;99.90;;;;;;5064264;28;20627;-81
2023/10/24 07:51:11;;;;;;;256.80;35.75;;;10.50;99.90;;;;;;5079528;28;20046;-81
2023/10/24 07:53:36;;;;;;;129.30;28.58;;;10.50;99.90;;;;;;5059405;28;20043;-81
2023/10/24 07:56:05;;;;;;;224.85;32.83;;;10.50;99.90;;;;;;5080921;28;20027;-82
2023/10/24 07:58:31;;;;;;;191.50;30.10;;;10.50;99.90;;;;;;5076708;28;20052;-82
2023/10/24 08:00:57;;;;;;;222.23;34.17;;;10.50;99.90;;;;;;5072723;28;20080;-82
2023/10/24 08:03:23;;;;;;;396.25;40.28;;;10.50;99.90;;;;;;5107198;28;20044;-82
2023/10/24 08:05:49;;;;;;;118.18;28.33;;;10.50;99.90;;;;;;5084436;28;20040;-82
2023/10/24 08:08:14;;;;;;;95.85;31.23;;;10.50;99.90;;;;;;5091589;28;20382;-82
2023/10/24 08:10:40;;;;;;;63.40;30.80;;;10.60;99.90;;;;;;5080187;28;20035;-82
2023/10/24 08:13:06;;;;;;;78.43;29.48;;;10.60;99.90;;;;;;5088448;28;20028;-82
2023/10/24 08:15:32;;;;;;;79.28;28.48;;;10.60;99.90;;;;;;5066520;28;20474;-82
2023/10/24 08:17:58;;;;;;;73.10;27.05;;;10.60;99.90;;;;;;5067022;28;20020;-82
2023/10/24 08:20:25;;;;;;;80.97;28.95;;;10.60;99.90;;;;;;5064698;28;20032;-82
2023/10/24 08:22:51;;;;;;;50.53;25.55;;;10.70;99.90;;;;;;5086248;28;20103;-82
2023/10/24 08:25:23;;;;;;;55.33;25.88;;;10.70;99.90;;;;;;5065265;28;20047;-82
2023/10/24 08:27:49;;;;;;;66.43;28.00;;;10.80;99.90;;;;;;5073104;28;20482;-83
2023/10/24 08:30:31;;;;;;;56.50;25.70;;;10.80;99.90;;;;;;5089352;28;20076;-82
2023/10/24 08:33:00;;;;;;;77.53;25.95;;;10.90;99.90;;;;;;5076321;28;20031;-82
2023/10/24 08:35:26;;;;;;;54.65;24.42;;;11.00;99.90;;;;;;5069518;28;20032;-82
2023/10/24 08:37:52;;;;;;;51.28;26.25;;;10.90;99.90;;;;;;5099063;28;20030;-82
2023/10/24 08:40:18;;;;;;;49.20;25.25;;;10.90;99.90;;;;;;5067593;28;20035;-82
2023/10/24 08:42:44;;;;;;;63.05;27.25;;;10.90;99.90;;;;;;5084618;28;20074;-83
2023/10/24 08:45:11;;;;;;;59.22;27.95;;;10.90;99.90;;;;;;5090020;28;20052;-82
2023/10/24 08:47:37;;;;;;;48.95;25.58;;;10.90;99.90;;;;;;5080264;28;20466;-82
2023/10/24 08:50:05;;;;;;;53.67;29.13;;;10.90;99.90;;;;;;5067763;28;20109;-83
2023/10/24 08:52:30;;;;;;;51.15;28.55;;;11.00;99.90;;;;;;5065687;28;20036;-82
2023/10/24 08:55:00;;;;;;;52.70;28.20;;;11.00;99.90;;;;;;5088360;28;20035;-83
2023/10/24 08:57:39;;;;;;;56.65;29.40;;;11.00;99.90;;;;;;5065329;28;20063;-83
2023/10/24 09:00:13;;;;;;;49.58;27.30;;;11.00;99.90;;;;;;5063139;28;20526;-83
2023/10/24 09:02:41;;;;;;;42.72;25.75;;;11.00;99.90;;;;;;5089528;28;20036;-83
2023/10/24 09:05:14;;;;;;;47.28;25.67;;;11.00;99.90;;;;;;5074952;28;20020;-83
2023/10/24 09:07:40;;;;;;;47.58;27.80;;;11.00;99.90;;;;;;5080725;28;20064;-82
2023/10/24 09:10:07;;;;;;;40.60;25.92;;;10.90;99.90;;;;;;5070043;28;20146;-83
2023/10/24 09:12:58;;;;;;;54.13;28.73;;;10.90;99.90;;;;;;5077832;28;20821;-83
2023/10/24 09:15:23;;;;;;;40.15;23.40;;;10.80;99.90;;;;;;5079041;28;20046;-83
2023/10/24 09:17:49;;;;;;;54.15;33.67;;;10.90;99.90;;;;;;5070355;28;20106;-83
2023/10/24 09:20:18;;;;;;;54.25;28.70;;;10.90;99.90;;;;;;5063992;28;20035;-83
2023/10/24 09:22:44;;;;;;;64.93;29.58;;;10.90;99.90;;;;;;5087021;28;20027;-83
2023/10/24 09:25:10;;;;;;;49.03;28.05;;;10.90;99.90;;;;;;5082385;28;20019;-83
2023/10/24 09:27:36;;;;;;;50.45;23.92;;;10.80;99.90;;;;;;5080876;28;20024;-83
2023/10/24 09:30:12;;;;;;;54.17;26.25;;;10.80;99.90;;;;;;5083580;28;20043;-83
2023/10/24 09:32:43;;;;;;;35.25;20.83;;;10.80;99.90;;;;;;5082846;28;20028;-83
2023/10/24 09:35:09;;;;;;;;;;;10.80;99.90;;;;;;5086207;28;20031;-84
2023/10/24 09:37:39;;;;;;;34.08;20.60;;;10.80;99.90;;;;;;5062696;28;20006;-83
2023/10/24 09:40:06;;;;;;;42.10;24.67;;;10.80;99.90;;;;;;5108716;27;20062;-83
2023/10/24 09:42:40;;;;;;;230.93;104.20;;;10.70;99.90;;;;;;5058972;28;20039;-83
2023/10/24 09:45:17;;;;;;;48.47;25.95;;;10.70;99.90;;;;;;5072679;28;20641;-83
2023/10/24 09:47:44;;;;;;;44.15;24.83;;;10.80;99.90;;;;;;5116841;27;20028;-83
2023/10/24 09:50:11;;;;;;;28.58;16.15;;;10.90;99.90;;;;;;5059738;28;20030;-83
2023/10/24 09:52:55;;;;;;;28.65;17.30;;;11.00;99.90;;;;;;5061304;28;20024;-83
2023/10/24 09:55:22;;;;;;;28.20;17.92;;;11.00;99.90;;;;;;5075878;28;20092;-83
2023/10/24 09:57:50;;;;;;;22.27;14.48;;;11.00;99.90;;;;;;5075823;28;20106;-83
2023/10/24 10:00:18;;;;;;;17.23;11.45;;;11.20;99.90;;;;;;5076553;28;20027;-83
2023/10/24 10:02:59;;;;;;;15.85;11.40;;;11.20;99.90;;;;;;5080341;28;20122;-83
2023/10/24 10:05:31;;;;;;;15.38;10.98;;;11.20;99.90;;;;;;5053377;28;20478;-82
2023/10/24 10:07:59;;;;;;;13.25;9.40;;;11.20;99.90;;;;;;5092405;28;20024;-83
2023/10/24 10:10:25;;;;;;;11.65;8.57;;;11.20;99.90;;;;;;5058755;28;20032;-83
2023/10/24 10:13:03;;;;;;;12.75;9.05;;;11.30;99.90;;;;;;5074544;28;20073;-83
2023/10/24 10:15:41;;;;;;;10.35;8.02;;;11.30;99.90;;;;;;5059057;28;20036;-84
2023/10/24 10:18:30;;;;;;;12.00;8.65;;;11.40;99.90;;;;;;5092316;28;20032;-83
2023/10/24 10:21:16;;;;;;;12.20;8.15;;;11.40;99.90;;;;;;5075287;28;20047;-83
2023/10/24 10:24:10;;;;;;;10.07;7.60;;;11.30;99.90;;;;;;5084183;28;20032;-83
2023/10/24 10:26:46;;;;;;;15.52;7.43;;;11.40;99.90;;;;;;5075117;28;20063;-83
2023/10/24 10:29:46;;;;;;;9.73;7.57;;;11.40;99.90;;;;;;5062142;28;20383;-83
2023/10/24 10:32:57;;;;;;;11.40;7.88;;;11.30;99.90;;;;;;5088530;28;20423;-83
2023/10/24 10:35:46;;;;;;;8.82;5.50;;;11.40;99.90;;;;;;5072977;28;20048;-83
2023/10/24 10:38:12;;;;;;;10.07;5.88;;;11.40;99.90;;;;;;5079501;28;20122;-82
2023/10/24 10:40:37;;;;;;;7.30;5.50;;;11.40;99.90;;;;;;5078867;28;20501;-82
2023/10/24 10:43:03;;;;;;;7.50;5.45;;;11.40;99.90;;;;;;5085710;28;21140;-83
2023/10/24 10:45:30;;;;;;;6.85;5.35;;;11.40;99.90;;;;;;5108326;27;20020;-82
2023/10/24 10:47:58;;;;;;;9.93;6.82;;;11.40;99.90;;;;;;5074271;28;20099;-82
2023/10/24 10:50:29;;;;;;;8.68;6.63;;;11.30;99.90;;;;;;5075002;28;20487;-82
2023/10/24 10:53:23;;;;;;;11.93;7.55;;;11.30;99.90;;;;;;5072103;28;20739;-82
2023/10/24 10:56:14;;;;;;;8.63;6.68;;;11.30;99.90;;;;;;5090759;28;20036;-82
2023/10/24 10:58:40;;;;;;;9.25;7.05;;;11.40;99.90;;;;;;5058293;28;20085;-83
2023/10/24 11:01:33;;;;;;;12.15;6.82;;;11.50;99.90;;;;;;5090528;28;20432;-82
2023/10/24 11:03:59;;;;;;;13.15;9.15;;;11.40;99.90;;;;;;5102854;28;20506;-82
2023/10/24 11:06:27;;;;;;;11.85;6.93;;;11.40;99.90;;;;;;5108377;27;20036;-82
2023/10/24 11:09:10;;;;;;;13.77;8.63;;;11.40;99.90;;;;;;5072604;28;20111;-82
2023/10/24 11:11:39;;;;;;;11.80;8.63;;;11.40;99.90;;;;;;5086531;28;20071;-82
2023/10/24 11:14:15;;;;;;;13.70;7.72;;;11.40;99.90;;;;;;5075879;28;20051;-82
2023/10/24 11:16:42;;;;;;;11.93;8.07;;;11.30;99.90;;;;;;5064987;28;20058;-83
2023/10/24 11:19:18;;;;;;;15.63;9.90;;;11.40;99.90;;;;;;5069495;28;20036;-82
2023/10/24 11:21:46;;;;;;;9.32;7.47;;;11.40;99.90;;;;;;5057360;28;20118;-82
2023/10/24 11:24:22;;;;;;;9.73;7.68;;;11.40;99.90;;;;;;5078283;28;20475;-82
2023/10/24 11:27:00;;;;;;;17.73;8.63;;;11.30;99.90;;;;;;5071339;28;20035;-81
2023/10/24 11:29:27;;;;;;;30.85;10.48;;;11.30;99.90;;;;;;5073431;28;20032;-82
2023/10/24 11:31:52;;;;;;;15.75;9.32;;;11.20;99.90;;;;;;5083811;28;20383;-82
2023/10/24 11:34:18;;;;;;;14.35;9.77;;;11.20;99.90;;;;;;5074157;28;20020;-83
2023/10/24 11:36:45;;;;;;;158.57;14.30;;;11.30;99.90;;;;;;5118950;27;20375;-83
2023/10/24 11:39:14;;;;;;;324.20;22.55;;;11.30;99.90;;;;;;5093177;28;20478;-82
2023/10/24 11:41:43;;;;;;;47.65;11.57;;;11.30;99.90;;;;;;5085882;28;20099;-82
2023/10/24 11:44:11;;;;;;;263.45;21.10;;;11.20;99.90;;;;;;5066868;28;20122;-83
2023/10/24 11:46:44;;;;;;;71.97;13.60;;;11.20;99.90;;;;;;5107659;28;20035;-83
2023/10/24 11:49:10;;;;;;;250.68;18.13;;;11.20;99.90;;;;;;5093662;28;20039;-83
2023/10/24 11:51:36;;;;;;;325.75;22.50;;;11.10;99.90;;;;;;5068351;28;20743;-83
2023/10/24 11:54:04;;;;;;;100.30;13.68;;;11.10;99.90;;;;;;5061646;28;20374;-83
2023/10/24 11:56:30;;;;;;;151.65;16.27;;;11.20;99.90;;;;;;5062856;28;20032;-83
2023/10/24 11:58:57;;;;;;;72.15;13.02;;;11.00;99.90;;;;;;5060966;28;20028;-83
2023/10/24 12:01:29;;;;;;;57.92;15.93;;;11.00;99.90;;;;;;5082820;28;20111;-83
2023/10/24 12:03:56;;;;;;;250.90;22.27;;;11.00;99.90;;;;;;5079025;28;20035;-83
2023/10/24 12:06:22;;;;;;;62.28;14.45;;;11.00;99.90;;;;;;5060557;28;20043;-83
2023/10/24 12:08:49;;;;;;;23.95;14.23;;;11.10;99.90;;;;;;5045357;28;20040;-83
2023/10/24 12:11:16;;;;;;;23.63;15.25;;;11.10;99.90;;;;;;5069117;28;20059;-83
2023/10/24 12:13:42;;;;;;;21.40;14.38;;;11.00;99.90;;;;;;5077592;28;20479;-83
2023/10/24 12:16:08;;;;;;;20.60;13.88;;;11.00;99.90;;;;;;5080670;28;20029;-83
2023/10/24 12:18:37;;;;;;;23.88;15.07;;;11.10;99.90;;;;;;5079783;28;20028;-83
2023/10/24 12:21:02;;;;;;;34.38;16.83;;;11.10;99.90;;;;;;5073643;28;20479;-82
2023/10/24 12:23:28;;;;;;;24.00;15.98;;;11.00;99.90;;;;;;5065062;28;20035;-82
2023/10/24 12:25:54;;;;;;;23.75;15.80;;;11.00;99.90;;;;;;5061864;28;20467;-83
2023/10/24 12:28:20;;;;;;;23.08;14.15;;;11.00;99.90;;;;;;5058329;28;20563;-83
2023/10/24 12:30:46;;;;;;;20.85;14.25;;;11.00;99.90;;;;;;5059885;28;20521;-83
2023/10/24 12:33:12;;;;;;;22.92;15.75;;;11.00;99.90;;;;;;5089937;28;20387;-83
2023/10/24 12:35:38;;;;;;;19.25;13.88;;;11.00;99.90;;;;;;5073356;28;20032;-82
2023/10/24 12:38:04;;;;;;;22.70;16.25;;;10.90;99.90;;;;;;5057979;28;20735;-83
2023/10/24 12:40:29;;;;;;;18.88;13.57;;;11.00;99.90;;;;;;5068555;28;20114;-83
2023/10/24 12:42:55;;;;;;;22.63;15.38;;;11.00;99.90;;;;;;5076104;28;20035;-83